Observation data for Seagraves on 12/08/2018      Previous  Date       Current Mesonet Observations  Soil Data  Daily Summary Page  Observations in Plain Language
KSGV 080600Z 01004KT 00/00 A3026 RMK A01 T000000-3  RH  099%=      5-min Rain = 0
KSGV 080605Z 01005KT 00/00 A3026 RMK A01 T00-000-4  RH  099%=      5-min Rain = 0
KSGV 080610Z 01005KT M00/M00 A3026 RMK A01 T10011004  RH  099%=      5-min Rain = 0
KSGV 080615Z 01005KT 00/00 A3026 RMK A01 T00-000-4  RH  099%=      5-min Rain = 0
KSGV 080620Z 01004KT M00/M00 A3026 RMK A01 T10011004  RH  099%=      5-min Rain = 0
KSGV 080625Z 01005KT M00/M00 A3025 RMK A01 T10011004  RH  099%=      5-min Rain = 0
KSGV 080630Z 01005KT M00/M00 A3025 RMK A01 T10011004  RH  099%=      5-min Rain = 0
KSGV 080635Z 02005KT M00/M00 A3025 RMK A01 T10011004  RH  099%=      5-min Rain = 0
KSGV 080640Z 01005KT M00/M00 A3025 RMK A01 T10011004  RH  099%=      5-min Rain = 0
KSGV 080645Z 01006KT M00/M00 A3025 RMK A01 T10021004  RH  099%=      5-min Rain = 0
KSGV 080650Z 01006KT M00/M00 A3024 RMK A01 T10021004  RH  099%=      5-min Rain = 0
KSGV 080655Z 01006KT M00/M00 A3024 RMK A01 T10021004  RH  099%=      5-min Rain = 0
KSGV 080700Z 01006KT M00/M00 A3024 RMK A01 T10021004  RH  099%=      5-min Rain = 0
KSGV 080705Z 00007KT M00/M00 A3024 RMK A01 T10021004  RH  099%=      5-min Rain = 0
KSGV 080710Z 01007KT M00/M00 A3023 RMK A01 T10021004  RH  100%=      5-min Rain = 0
KSGV 080715Z 01008KT M00/M00 A3023 RMK A01 T10021004  RH  100%=      5-min Rain = 0
KSGV 080720Z 01008KT M00/M00 A3023 RMK A01 T10021004  RH  100%=      5-min Rain = 0
KSGV 080725Z 01008KT M00/M00 A3023 RMK A01 T10021004  RH  100%=      5-min Rain = 0
KSGV 080730Z 01008KT M00/M00 A3023 RMK A01 T10021004  RH  100%=      5-min Rain = 0
KSGV 080735Z 01009KT M00/M00 A3023 RMK A01 T10021004  RH  100%=      5-min Rain = 0
KSGV 080740Z 01009KT M00/M00 A3023 RMK A01 T10021004  RH  100%=      5-min Rain = 0
KSGV 080745Z 02008G13KT M00/M00 A3022 RMK A01 T10021004  RH  100%=      5-min Rain = 0
KSGV 080750Z 01009KT M00/M00 A3022 RMK A01 T10021004  RH  100%=      5-min Rain = 0
KSGV 080755Z 01010KT M00/M00 A3022 RMK A01 T10021004  RH  100%=      5-min Rain = 0
KSGV 080800Z 01011KT M00/M00 A3022 RMK A01 T10021004  RH  100%=      5-min Rain = 0
KSGV 080805Z 02009KT M00/M00 A3022 RMK A01 T10031004  RH  100%=      5-min Rain = 0
KSGV 080810Z 02010KT M00/M01 A3021 RMK A01 T10031005  RH  100%=      5-min Rain = 0
KSGV 080815Z 02011G16KT M00/M01 A3021 RMK A01 T10031005  RH  100%=      5-min Rain = 0
KSGV 080820Z 02010G15KT M00/M01 A3021 RMK A01 T10031005  RH  100%=      5-min Rain = 0
KSGV 080825Z 02010KT M00/M01 A3021 RMK A01 T10041005  RH  100%=      5-min Rain = 0
KSGV 080830Z 02010KT M00/M01 A3021 RMK A01 T10041005  RH  100%=      5-min Rain = 0
KSGV 080835Z 02010G16KT M00/M01 A3021 RMK A01 T10041005  RH  100%=      5-min Rain = 0
KSGV 080840Z 02012G17KT M00/M01 A3021 RMK A01 T10041005  RH  100%=      5-min Rain = 0
KSGV 080845Z 02011G17KT M00/M01 A3021 RMK A01 T10041006  RH  100%=      5-min Rain = 0
KSGV 080850Z 02012KT M00/M01 A302 RMK A01 T10041006  RH  100%=      5-min Rain = 0
KSGV 080855Z 02011G16KT M00/M01 A302 RMK A01 T10041006  RH  100%=      5-min Rain = 0
KSGV 080900Z 02012G17KT M00/M01 A302 RMK A01 T10041006  RH  100%=      5-min Rain = 0
KSGV 080905Z 02011G16KT M01/M01 A302 RMK A01 T10051006  RH  100%=      5-min Rain = 0
KSGV 080910Z 02013KT M01/M01 A302 RMK A01 T10051007  RH  100%=      5-min Rain = 0
KSGV 080915Z 02011KT M01/M01 A3021 RMK A01 T10051007  RH  100%=      5-min Rain = 0
KSGV 080920Z 02010KT M01/M01 A3021 RMK A01 T10051007  RH  100%=      5-min Rain = 0
KSGV 080925Z 01009KT M01/M01 A3021 RMK A01 T10051007  RH  100%=      5-min Rain = 0
KSGV 080930Z 00009KT M01/M01 A3022 RMK A01 T10061007  RH  100%=      5-min Rain = 0
KSGV 080935Z 00010KT M01/M01 A3023 RMK A01 T10061008  RH  100%=      5-min Rain = 0
KSGV 080940Z 02008KT M01/M01 A3023 RMK A01 T10071008  RH  100%=      5-min Rain = 0
KSGV 080945Z 02010G15KT M01/M01 A3023 RMK A01 T10071009  RH  100%=      5-min Rain = 0
KSGV 080950Z 01010KT M01/M01 A3023 RMK A01 T10081010  RH  100%=      5-min Rain = 0
KSGV 080955Z 01008KT M01/M01 A3023 RMK A01 T10081010  RH  100%=      5-min Rain = 0
KSGV 081000Z 01009KT M01/M01 A3023 RMK A01 T10081010  RH  100%=      5-min Rain = 0
KSGV 081005Z 02009G14KT M01/M01 A3023 RMK A01 T10091010  RH  100%=      5-min Rain = 0
KSGV 081010Z 02009G14KT M01/M01 A3023 RMK A01 T10091010  RH  100%=      5-min Rain = 0
KSGV 081015Z 02009KT M01/M01 A3023 RMK A01 T10091010  RH  100%=      5-min Rain = 0
KSGV 081020Z 01008KT M01/M01 A3022 RMK A01 T10091010  RH  100%=      5-min Rain = 0
KSGV 081025Z 01008KT M01/M01 A3022 RMK A01 T10091010  RH  100%=      5-min Rain = 0
KSGV 081030Z 01008KT M01/M01 A3023 RMK A01 T10091010  RH  100%=      5-min Rain = 0
KSGV 081035Z 01009KT M01/M01 A3022 RMK A01 T10101011  RH  100%=      5-min Rain = 0
KSGV 081040Z 01008KT M01/M01 A3022 RMK A01 T10101011  RH  100%=      5-min Rain = 0
KSGV 081045Z 01007KT M01/M01 A3023 RMK A01 T10101012  RH  100%=      5-min Rain = 0
KSGV 081050Z 01008KT M01/M01 A3023 RMK A01 T10101012  RH  100%=      5-min Rain = 0
KSGV 081055Z 01007KT M01/M01 A3023 RMK A01 T10101012  RH  100%=      5-min Rain = 0
KSGV 081100Z 01008KT M01/M01 A3023 RMK A01 T10101012  RH  100%=      5-min Rain = 0
KSGV 081105Z 01008KT M01/M01 A3023 RMK A01 T10101012  RH  100%=      5-min Rain = 0
KSGV 081110Z 01008KT M01/M01 A3023 RMK A01 T10101012  RH  100%=      5-min Rain = 0
KSGV 081115Z 01008KT M01/M01 A3023 RMK A01 T10101012  RH  100%=      5-min Rain = 0
KSGV 081120Z 01007KT M01/M01 A3023 RMK A01 T10101012  RH  100%=      5-min Rain = 0
KSGV 081125Z 01007KT M01/M01 A3023 RMK A01 T10101012  RH  100%=      5-min Rain = 0
KSGV 081130Z 01007KT M01/M01 A3023 RMK A01 T10101012  RH  100%=      5-min Rain = 0
KSGV 081135Z 01007KT M01/M01 A3023 RMK A01 T10101012  RH  100%=      5-min Rain = 0
KSGV 081140Z 01007KT M01/M01 A3024 RMK A01 T10101012  RH  100%=      5-min Rain = 0
KSGV 081145Z 00006KT M01/M01 A3024 RMK A01 T10101012  RH  100%=      5-min Rain = 0
KSGV 081150Z 35006KT M01/M01 A3024 RMK A01 T10101011  RH  100%=      5-min Rain = 0
KSGV 081155Z 35006KT M01/M01 A3024 RMK A01 T10101011  RH  100%=      5-min Rain = 0
KSGV 081200Z 36007KT M01/M01 A3024 RMK A01 T10101011  RH  100%=      5-min Rain = 0
KSGV 081205Z 00007KT M01/M01 A3025 RMK A01 T10101011  RH  100%=      5-min Rain = 0
KSGV 081210Z 36007KT M01/M01 A3025 RMK A01 T10101012  RH  100%=      5-min Rain = 0
KSGV 081215Z 36007KT M01/M01 A3025 RMK A01 T10101012  RH  100%=      5-min Rain = 0
KSGV 081220Z 36007KT M01/M01 A3025 RMK A01 T10101012  RH  100%=      5-min Rain = 0
KSGV 081225Z 35006KT M01/M01 A3025 RMK A01 T10101011  RH  100%=      5-min Rain = 0
KSGV 081230Z 35007KT M01/M01 A3025 RMK A01 T10101011  RH  100%=      5-min Rain = 0
KSGV 081235Z 35008KT M01/M01 A3025 RMK A01 T10101011  RH  100%=      5-min Rain = 0
KSGV 081240Z 00007KT M01/M01 A3025 RMK A01 T10101011  RH  100%=      5-min Rain = 0
KSGV 081245Z 36007KT M01/M01 A3025 RMK A01 T10101011  RH  100%=      5-min Rain = 0
KSGV 081250Z 00007KT M01/M01 A3025 RMK A01 T10101012  RH  100%=      5-min Rain = 0
KSGV 081255Z 00007KT M01/M01 A3025 RMK A01 T10101012  RH  100%=      5-min Rain = 0
KSGV 081300Z 36006KT M01/M01 A3026 RMK A01 T10101012  RH  100%=      5-min Rain = 0
KSGV 081305Z 35006KT M01/M01 A3026 RMK A01 T10101012  RH  100%=      5-min Rain = 0
KSGV 081310Z 35007KT M01/M01 A3026 RMK A01 T10101012  RH  100%=      5-min Rain = 0
KSGV 081315Z 00007KT M01/M01 A3026 RMK A01 T10101011  RH  100%=      5-min Rain = 0
KSGV 081320Z 36007KT M01/M01 A3026 RMK A01 T10101011  RH  100%=      5-min Rain = 0
KSGV 081325Z 36007KT M01/M01 A3026 RMK A01 T10101011  RH  100%=      5-min Rain = 0
KSGV 081330Z 36007KT M01/M01 A3026 RMK A01 T10101011  RH  100%=      5-min Rain = 0
KSGV 081335Z 00007KT M01/M01 A3026 RMK A01 T10101011  RH  100%=      5-min Rain = 0
KSGV 081340Z 36007KT M01/M01 A3027 RMK A01 T10101011  RH  100%=      5-min Rain = 0
KSGV 081345Z 36007KT M01/M01 A3027 RMK A01 T10101011  RH  100%=      5-min Rain = 0
KSGV 081350Z 36007KT M01/M01 A3027 RMK A01 T10101011  RH  100%=      5-min Rain = 0
KSGV 081355Z 35007KT M01/M01 A3027 RMK A01 T10101011  RH  100%=      5-min Rain = 0
KSGV 081400Z 35006KT M01/M01 A3027 RMK A01 T10101011  RH  100%=      5-min Rain = 0
KSGV 081405Z 35006KT M01/M01 A3028 RMK A01 T10091011  RH  100%=      5-min Rain = 0
KSGV 081410Z 36007KT M01/M01 A3028 RMK A01 T10091010  RH  100%=      5-min Rain = 0
KSGV 081415Z 36007KT M01/M01 A3028 RMK A01 T10091010  RH  100%=      5-min Rain = 0
KSGV 081420Z 36007KT M01/M01 A3028 RMK A01 T10091010  RH  100%=      5-min Rain = 0
KSGV 081425Z 36007KT M01/M01 A3029 RMK A01 T10081010  RH  100%=      5-min Rain = 0
KSGV 081430Z 36007KT M01/M01 A3029 RMK A01 T10081009  RH  100%=      5-min Rain = 0
KSGV 081435Z 36007KT M01/M01 A3029 RMK A01 T10081009  RH  100%=      5-min Rain = 0
KSGV 081440Z 36007KT M01/M01 A3029 RMK A01 T10081009  RH  100%=      5-min Rain = 0
KSGV 081445Z 36007KT M01/M01 A3029 RMK A01 T10081009  RH  100%=      5-min Rain = 0
KSGV 081450Z 35008KT M01/M01 A303 RMK A01 T10081009  RH  100%=      5-min Rain = 0
KSGV 081455Z 35008KT M01/M01 A303 RMK A01 T10081009  RH  100%=      5-min Rain = 0
KSGV 081500Z 35008KT M01/M01 A303 RMK A01 T10071009  RH  100%=      5-min Rain = 0
KSGV 081505Z 35008KT M01/M01 A303 RMK A01 T10071008  RH  100%=      5-min Rain = 0
KSGV 081510Z 35008KT M01/M01 A303 RMK A01 T10061007  RH  100%=      5-min Rain = 0
KSGV 081515Z 35007KT M01/M01 A303 RMK A01 T10051007  RH  100%=      5-min Rain = 0
KSGV 081520Z 35008KT M01/M01 A3031 RMK A01 T10051007  RH  100%=      5-min Rain = 0
KSGV 081525Z 35007KT M01/M01 A3031 RMK A01 T10051006  RH  100%=      5-min Rain = 0
KSGV 081530Z 35007KT M00/M01 A3031 RMK A01 T10041006  RH  100%=      5-min Rain = 0
KSGV 081535Z 36007KT M00/M01 A3031 RMK A01 T10041005  RH  100%=      5-min Rain = 0
KSGV 081540Z 00008KT M00/M01 A3031 RMK A01 T10041005  RH  100%=      5-min Rain = 0
KSGV 081545Z 00007KT M00/M01 A3031 RMK A01 T10041005  RH  100%=      5-min Rain = 0
KSGV 081550Z 01006KT M00/M01 A3031 RMK A01 T10041005  RH  100%=      5-min Rain = 0
KSGV 081555Z 01006KT M00/M01 A3031 RMK A01 T10031005  RH  100%=      5-min Rain = 0
KSGV 081600Z 01007KT M00/M01 A3031 RMK A01 T10031005  RH  100%=      5-min Rain = 0
KSGV 081605Z 01007KT M00/M01 A3031 RMK A01 T10031005  RH  100%=      5-min Rain = 0.01
KSGV 081610Z 01007KT M00/M01 A3032 RMK A01 T10031005  RH  100%=      5-min Rain = 0
KSGV 081615Z 01006KT M00/M00 A3032 RMK A01 T10031004  RH  100%=      5-min Rain = 0
KSGV 081620Z 02007KT M00/M00 A3032 RMK A01 T10021004  RH  100%=      5-min Rain = 0
KSGV 081625Z 01007KT M00/M00 A3032 RMK A01 T10021003  RH  100%=      5-min Rain = 0.01
KSGV 081630Z 01008KT M00/M00 A3032 RMK A01 T10021003  RH  100%=      5-min Rain = 0
KSGV 081635Z 01007KT M00/M00 A3032 RMK A01 T10011002  RH  100%=      5-min Rain = 0
KSGV 081640Z 02007KT 00/00 A3032 RMK A01 T00-000-2  RH  100%=      5-min Rain = 0.01
KSGV 081645Z 02008KT 00/00 A3032 RMK A01 T000000-1  RH  100%=      5-min Rain = 0.01
KSGV 081650Z 02008KT 00/00 A3032 RMK A01 T00-000-2  RH  100%=      5-min Rain = 0
KSGV 081655Z 01008KT 00/00 A3032 RMK A01 T000000-1  RH  100%=      5-min Rain = 0.01
KSGV 081700Z 02008KT 00/M00 A3032 RMK A01 T00011001  RH  100%=      5-min Rain = 0.01
KSGV 081705Z 01008KT 00/00 A3032 RMK A01 T000100-0  RH  100%=      5-min Rain = 0.01
KSGV 081710Z 02008KT 00/00 A3032 RMK A01 T00020000  RH  100%=      5-min Rain = 0.01
KSGV 081715Z 02006KT 00/00 A3032 RMK A01 T00030002  RH  100%=      5-min Rain = 0.01
KSGV 081720Z 01008KT 00/00 A3033 RMK A01 T00030001  RH  100%=      5-min Rain = 0
KSGV 081725Z 02008KT 00/00 A3032 RMK A01 T00020001  RH  100%=      5-min Rain = 0.01
KSGV 081730Z 02008KT 00/00 A3032 RMK A01 T00020000  RH  100%=      5-min Rain = 0
KSGV 081735Z 01007KT 00/00 A3032 RMK A01 T00030002  RH  100%=      5-min Rain = 0.01
KSGV 081740Z 02007KT 00/00 A3032 RMK A01 T00040002  RH  100%=      5-min Rain = 0.01
KSGV 081745Z 01007KT 00/00 A3032 RMK A01 T00040003  RH  100%=      5-min Rain = 0.02
KSGV 081750Z 01007KT 00/00 A3032 RMK A01 T00040002  RH  100%=      5-min Rain = 0.01
KSGV 081755Z 01007KT 00/00 A3032 RMK A01 T00040002  RH  100%=      5-min Rain = 0.01
KSGV 081800Z 01006KT 00/00 A3032 RMK A01 T00040002  RH  100%=      5-min Rain = 0.02
KSGV 081805Z 02006KT 01/00 A3031 RMK A01 T00050003  RH  100%=      5-min Rain = 0.01
KSGV 081810Z 02007KT 00/00 A3031 RMK A01 T00040002  RH  100%=      5-min Rain = 0.01
KSGV 081815Z 02006KT 00/00 A3031 RMK A01 T00020001  RH  100%=      5-min Rain = 0.01
KSGV 081820Z 02006KT 00/00 A303 RMK A01 T00030001  RH  100%=      5-min Rain = 0.02
KSGV 081825Z 01005KT 00/00 A303 RMK A01 T00030001  RH  100%=      5-min Rain = 0.01
KSGV 081830Z 00006KT 00/00 A303 RMK A01 T00020001  RH  100%=      5-min Rain = 0.01
KSGV 081835Z 00005KT 00/00 A303 RMK A01 T00020001  RH  100%=      5-min Rain = 0.01
KSGV 081840Z 01004KT 00/00 A303 RMK A01 T00030001  RH  100%=      5-min Rain = 0.01
KSGV 081845Z 02005KT 00/00 A3029 RMK A01 T00030001  RH  100%=      5-min Rain = 0.01
KSGV 081850Z 02005KT 00/00 A3029 RMK A01 T00030001  RH  100%=      5-min Rain = 0.02
KSGV 081855Z 02004KT 00/00 A3028 RMK A01 T00040002  RH  100%=      5-min Rain = 0.01
KSGV 081900Z 01004KT 00/00 A3028 RMK A01 T00040003  RH  100%=      5-min Rain = 0.01
KSGV 081905Z 00005KT 01/00 A3028 RMK A01 T00060004  RH  100%=      5-min Rain = 0.01
KSGV 081910Z 35004KT 01/00 A3028 RMK A01 T00050003  RH  100%=      5-min Rain = 0.02
KSGV 081915Z 34004KT 01/00 A3028 RMK A01 T00060004  RH  100%=      5-min Rain = 0.01
KSGV 081920Z 34004KT 01/01 A3028 RMK A01 T00070005  RH  100%=      5-min Rain = 0.01
KSGV 081925Z 34004KT 01/01 A3028 RMK A01 T00090007  RH  100%=      5-min Rain = 0.01
KSGV 081930Z 34004KT 01/01 A3027 RMK A01 T00100008  RH  100%=      5-min Rain = 0.02
KSGV 081935Z 34004KT 01/01 A3027 RMK A01 T00100008  RH  100%=      5-min Rain = 0.01
KSGV 081940Z 36004KT 01/01 A3027 RMK A01 T00110009  RH  100%=      5-min Rain = 0.01
KSGV 081945Z 35004KT 01/01 A3027 RMK A01 T00100008  RH  100%=      5-min Rain = 0.02
KSGV 081950Z 34003KT 01/01 A3026 RMK A01 T00110009  RH  100%=      5-min Rain = 0.01
KSGV 081955Z 33004KT 01/01 A3026 RMK A01 T00130011  RH  100%=      5-min Rain = 0
KSGV 082000Z 33003KT 01/01 A3026 RMK A01 T00140012  RH  100%=      5-min Rain = 0
KSGV 082005Z 35003KT 01/01 A3026 RMK A01 T00120010  RH  100%=      5-min Rain = 0
KSGV 082010Z 35003KT 01/01 A3026 RMK A01 T00120010  RH  100%=      5-min Rain = 0
KSGV 082015Z 35003KT 01/01 A3025 RMK A01 T00130011  RH  100%=      5-min Rain = 0
KSGV 082020Z 35002KT 01/01 A3025 RMK A01 T00140012  RH  100%=      5-min Rain = 0
KSGV 082025Z 34003KT 02/01 A3025 RMK A01 T00160014  RH  100%=      5-min Rain = 0
KSGV 082030Z 34004KT 02/02 A3025 RMK A01 T00180016  RH  100%=      5-min Rain = 0
KSGV 082035Z 34003KT 02/02 A3025 RMK A01 T00180016  RH  100%=      5-min Rain = 0
KSGV 082040Z 34004KT 02/02 A3025 RMK A01 T00190017  RH  100%=      5-min Rain = 0
KSGV 082045Z 34004KT 02/02 A3025 RMK A01 T00190017  RH  100%=      5-min Rain = 0
KSGV 082050Z 35003KT 02/02 A3025 RMK A01 T00210019  RH  100%=      5-min Rain = 0
KSGV 082055Z 34005KT 02/02 A3025 RMK A01 T00190017  RH  100%=      5-min Rain = 0
KSGV 082100Z 34005KT 02/02 A3025 RMK A01 T00170015  RH  100%=      5-min Rain = 0
KSGV 082105Z 34004KT 02/02 A3024 RMK A01 T00180016  RH  100%=      5-min Rain = 0
KSGV 082110Z 35003KT 02/02 A3025 RMK A01 T00170015  RH  100%=      5-min Rain = 0
KSGV 082115Z 35005KT 02/02 A3025 RMK A01 T00170015  RH  100%=      5-min Rain = 0
KSGV 082120Z 35005KT 02/02 A3025 RMK A01 T00170015  RH  100%=      5-min Rain = 0
KSGV 082125Z 35005KT 02/01 A3025 RMK A01 T00150013  RH  100%=      5-min Rain = 0
KSGV 082130Z 35005KT 02/01 A3025 RMK A01 T00160014  RH  100%=      5-min Rain = 0
KSGV 082135Z 34005KT 02/02 A3025 RMK A01 T00170015  RH  100%=      5-min Rain = 0
KSGV 082140Z 34006KT 02/01 A3025 RMK A01 T00160014  RH  100%=      5-min Rain = 0
KSGV 082145Z 35005KT 02/01 A3025 RMK A01 T00160014  RH  100%=      5-min Rain = 0
KSGV 082150Z 35004KT 02/02 A3025 RMK A01 T00170015  RH  100%=      5-min Rain = 0
KSGV 082155Z 35005KT 02/01 A3024 RMK A01 T00160014  RH  100%=      5-min Rain = 0
KSGV 082200Z 35005KT 02/01 A3024 RMK A01 T00160014  RH  100%=      5-min Rain = 0
KSGV 082205Z 34005KT 02/01 A3024 RMK A01 T00160014  RH  100%=      5-min Rain = 0
KSGV 082210Z 33004KT 02/01 A3024 RMK A01 T00150013  RH  100%=      5-min Rain = 0
KSGV 082215Z 32004KT 02/02 A3024 RMK A01 T00180015  RH  100%=      5-min Rain = 0
KSGV 082220Z 34004KT 02/02 A3024 RMK A01 T00180015  RH  100%=      5-min Rain = 0
KSGV 082225Z 34005KT 02/02 A3025 RMK A01 T00190015  RH  099%=      5-min Rain = 0
KSGV 082230Z 33004KT 02/02 A3025 RMK A01 T00200015  RH  098%=      5-min Rain = 0
KSGV 082235Z 35006KT 02/01 A3025 RMK A01 T00190010  RH  096%=      5-min Rain = 0
KSGV 082240Z 35005KT 02/01 A3025 RMK A01 T00180006  RH  093%=      5-min Rain = 0
KSGV 082245Z 33005KT 02/00 A3024 RMK A01 T00200004  RH  090%=      5-min Rain = 0
KSGV 082250Z 34004KT 02/00 A3024 RMK A01 T00210000  RH  087%=      5-min Rain = 0
KSGV 082255Z 35004KT 02/00 A3024 RMK A01 T002100-0  RH  087%=      5-min Rain = 0
KSGV 082300Z 00004KT 02/M00 A3024 RMK A01 T00211001  RH  087%=      5-min Rain = 0
KSGV 082305Z 03004KT 02/M00 A3024 RMK A01 T00191002  RH  087%=      5-min Rain = 0
KSGV 082310Z 02003KT 02/M00 A3024 RMK A01 T00181003  RH  087%=      5-min Rain = 0
KSGV 082315Z 01003KT 02/M00 A3024 RMK A01 T00181003  RH  087%=      5-min Rain = 0
KSGV 082320Z 01004KT 02/M00 A3024 RMK A01 T00161004  RH  087%=      5-min Rain = 0
KSGV 082325Z 01003KT 01/M01 A3024 RMK A01 T00141005  RH  088%=      5-min Rain = 0
KSGV 082330Z 01002KT 01/M01 A3024 RMK A01 T00121006  RH  088%=      5-min Rain = 0
KSGV 082335Z 02003KT 01/M01 A3025 RMK A01 T00101008  RH  089%=      5-min Rain = 0
KSGV 082340Z 02003KT 01/M01 A3025 RMK A01 T00081009  RH  090%=      5-min Rain = 0
KSGV 082345Z 01003KT 01/M01 A3025 RMK A01 T00071009  RH  090%=      5-min Rain = 0
KSGV 082350Z 01003KT 01/M01 A3025 RMK A01 T00051010  RH  091%=      5-min Rain = 0
KSGV 082355Z 01003KT 00/M01 A3025 RMK A01 T00041010  RH  091%=      5-min Rain = 0
KSGV 090000Z 02003KT 00/M01 A3025 RMK A01 T00031010  RH  092%=      5-min Rain = 0
KSGV 090005Z 01002KT 00/M01 A3025 RMK A01 T00031010  RH  092%=      5-min Rain = 0
KSGV 090010Z 02002KT 00/M01 A3025 RMK A01 T00021011  RH  092%=      5-min Rain = 0
KSGV 090015Z 04002KT 00/M01 A3025 RMK A01 T00021012  RH  092%=      5-min Rain = 0
KSGV 090020Z 06001KT 00/M01 A3025 RMK A01 T00011012  RH  092%=      5-min Rain = 0
KSGV 090025Z 05002KT 00/01 A3025 RMK A01 T00000-11  RH  093%=      5-min Rain = 0
KSGV 090030Z 04002KT M00/M01 A3025 RMK A01 T10011012  RH  093%=      5-min Rain = 0
KSGV 090035Z 04003KT M00/M01 A3025 RMK A01 T10011012  RH  094%=      5-min Rain = 0
KSGV 090040Z 04003KT M00/M01 A3025 RMK A01 T10021012  RH  094%=      5-min Rain = 0
KSGV 090045Z 04003KT M00/M01 A3025 RMK A01 T10021012  RH  094%=      5-min Rain = 0
KSGV 090050Z 04003KT M00/M01 A3025 RMK A01 T10011012  RH  094%=      5-min Rain = 0
KSGV 090055Z 04002KT M00/M01 A3025 RMK A01 T10021012  RH  093%=      5-min Rain = 0
KSGV 090100Z 05002KT M00/M01 A3026 RMK A01 T10021012  RH  093%=      5-min Rain = 0
KSGV 090105Z 05002KT M00/M01 A3026 RMK A01 T10021012  RH  094%=      5-min Rain = 0
KSGV 090110Z 05002KT M00/M01 A3026 RMK A01 T10021013  RH  094%=      5-min Rain = 0
KSGV 090115Z 06002KT M00/M01 A3026 RMK A01 T10031013  RH  094%=      5-min Rain = 0
KSGV 090120Z 06002KT M00/M01 A3026 RMK A01 T10041014  RH  094%=      5-min Rain = 0
KSGV 090125Z 06001KT M01/M01 A3026 RMK A01 T10051014  RH  094%=      5-min Rain = 0
KSGV 090130Z 07001KT M01/M02 A3026 RMK A01 T10071016  RH  095%=      5-min Rain = 0
KSGV 090135Z 07002KT M01/M02 A3026 RMK A01 T10091017  RH  095%=      5-min Rain = 0
KSGV 090140Z 07002KT M01/M02 A3027 RMK A01 T10101017  RH  096%=      5-min Rain = 0
KSGV 090145Z 07002KT M01/M02 A3027 RMK A01 T10091016  RH  096%=      5-min Rain = 0
KSGV 090150Z 08002KT M01/M02 A3027 RMK A01 T10091015  RH  097%=      5-min Rain = 0
KSGV 090155Z 09001KT M01/M01 A3028 RMK A01 T10091014  RH  097%=      5-min Rain = 0
KSGV 090200Z 10001KT M01/M02 A3028 RMK A01 T10101015  RH  097%=      5-min Rain = 0
KSGV 090205Z 10002KT M01/M02 A3028 RMK A01 T10111017  RH  097%=      5-min Rain = 0
KSGV 090210Z 11002KT M01/M02 A3028 RMK A01 T10111016  RH  097%=      5-min Rain = 0
KSGV 090215Z 13002KT M01/M02 A3028 RMK A01 T10141020  RH  097%=      5-min Rain = 0
KSGV 090220Z 12002KT M02/M02 A3028 RMK A01 T10181024  RH  097%=      5-min Rain = 0
KSGV 090225Z 09002KT M02/M02 A3028 RMK A01 T10151020  RH  098%=      5-min Rain = 0
KSGV 090230Z 08002KT M02/M02 A3028 RMK A01 T10171022  RH  097%=      5-min Rain = 0
KSGV 090235Z 08002KT M02/M02 A3028 RMK A01 T10171021  RH  098%=      5-min Rain = 0
KSGV 090240Z 08002KT M02/M02 A3028 RMK A01 T10151019  RH  098%=      5-min Rain = 0
KSGV 090245Z 07002KT M02/M02 A3028 RMK A01 T10161020  RH  098%=      5-min Rain = 0
KSGV 090250Z 06002KT M02/M03 A3029 RMK A01 T10221026  RH  097%=      5-min Rain = 0
KSGV 090255Z 06001KT M03/M03 A3029 RMK A01 T10261031  RH  097%=      5-min Rain = 0
KSGV 090300Z 35001KT M03/M03 A3029 RMK A01 T10281033  RH  097%=      5-min Rain = 0
KSGV 090305Z 35002KT M03/M03 A3029 RMK A01 T10291032  RH  098%=      5-min Rain = 0
KSGV 090310Z 36002KT M03/M03 A3029 RMK A01 T10281032  RH  098%=      5-min Rain = 0
KSGV 090315Z 01002KT M03/M03 A3029 RMK A01 T10271030  RH  098%=      5-min Rain = 0
KSGV 090320Z 01002KT M03/M03 A3029 RMK A01 T10251028  RH  099%=      5-min Rain = 0
KSGV 090325Z 01001KT M03/M03 A3029 RMK A01 T10261029  RH  099%=      5-min Rain = 0
KSGV 090330Z 02002KT M03/M03 A3029 RMK A01 T10281031  RH  098%=      5-min Rain = 0
KSGV 090335Z 03002KT M03/M03 A3029 RMK A01 T10251028  RH  099%=      5-min Rain = 0
KSGV 090340Z 03003KT M02/M03 A3029 RMK A01 T10221025  RH  099%=      5-min Rain = 0
KSGV 090345Z 04003KT M02/M02 A3029 RMK A01 T10201022  RH  099%=      5-min Rain = 0
KSGV 090350Z 05002KT M02/M02 A3029 RMK A01 T10181021  RH  099%=      5-min Rain = 0
KSGV 090355Z 05003KT M02/M02 A3029 RMK A01 T10191021  RH  099%=      5-min Rain = 0
KSGV 090400Z 05003KT M02/M02 A3029 RMK A01 T10181020  RH  099%=      5-min Rain = 0
KSGV 090405Z 05003KT M02/M02 A3029 RMK A01 T10181020  RH  099%=      5-min Rain = 0
KSGV 090410Z 05002KT M02/M02 A3029 RMK A01 T10171020  RH  099%=      5-min Rain = 0
KSGV 090415Z 06002KT M02/M02 A3029 RMK A01 T10171019  RH  099%=      5-min Rain = 0
KSGV 090420Z 06002KT M02/M02 A3029 RMK A01 T10171020  RH  099%=      5-min Rain = 0
KSGV 090425Z 06001KT M02/M02 A3029 RMK A01 T10201023  RH  099%=      5-min Rain = 0
KSGV 090430Z 06001KT M02/M02 A3029 RMK A01 T10211024  RH  099%=      5-min Rain = 0
KSGV 090435Z 06001KT M02/M02 A3029 RMK A01 T10221024  RH  099%=      5-min Rain = 0
KSGV 090440Z 05001KT M02/M03 A3029 RMK A01 T10231025  RH  099%=      5-min Rain = 0
KSGV 090445Z 03001KT M03/M03 A3029 RMK A01 T10291032  RH  098%=      5-min Rain = 0
KSGV 090450Z 02001KT M03/M03 A303 RMK A01 T10301034  RH  098%=      5-min Rain = 0
KSGV 090455Z 35002KT M03/M04 A303 RMK A01 T10321035  RH  098%=      5-min Rain = 0
KSGV 090500Z 35002KT M04/M04 A303 RMK A01 T10381041  RH  098%=      5-min Rain = 0
KSGV 090505Z 36002KT M04/M04 A303 RMK A01 T10381041  RH  098%=      5-min Rain = 0
KSGV 090510Z 02003KT M04/M04 A303 RMK A01 T10361038  RH  099%=      5-min Rain = 0
KSGV 090515Z 03002KT M03/M03 A303 RMK A01 T10311033  RH  099%=      5-min Rain = 0
KSGV 090520Z 04002KT M03/M03 A303 RMK A01 T10321034  RH  099%=      5-min Rain = 0
KSGV 090525Z 04001KT M03/M04 A303 RMK A01 T10341036  RH  099%=      5-min Rain = 0
KSGV 090530Z 03002KT M03/M03 A303 RMK A01 T10321034  RH  099%=      5-min Rain = 0
KSGV 090535Z 03002KT M03/M03 A303 RMK A01 T10291030  RH  099%=      5-min Rain = 0
KSGV 090540Z 04002KT M03/M03 A303 RMK A01 T10281029  RH  100%=      5-min Rain = 0
KSGV 090545Z 03002KT M03/M03 A303 RMK A01 T10271029  RH  099%=      5-min Rain = 0
KSGV 090550Z 02002KT M03/M03 A303 RMK A01 T10271029  RH  099%=      5-min Rain = 0
KSGV 090555Z 02002KT M03/M03 A303 RMK A01 T10281030  RH  099%=      5-min Rain = 0

Page generated in 0.0087 seconds.